createdAt,value
2019-05-23T00:01:43.743Z,26.87
2019-05-23T00:04:26.147Z,29.90
2019-05-23T00:07:00.816Z,24.40
2019-05-23T00:09:34.697Z,31.53
2019-05-23T00:12:31.121Z,32.10
2019-05-23T00:15:27.047Z,30.08
2019-05-23T00:18:01.339Z,26.10
2019-05-23T00:20:35.225Z,24.73
2019-05-23T00:23:08.402Z,26.33
2019-05-23T00:25:45.136Z,25.70
2019-05-23T00:28:20.005Z,27.87
2019-05-23T00:31:00.324Z,35.85
2019-05-23T00:33:37.737Z,30.30
2019-05-23T00:36:13.621Z,27.70
2019-05-23T00:38:46.884Z,29.17
2019-05-23T00:41:21.962Z,28.17
2019-05-23T00:43:55.720Z,29.00
2019-05-23T00:46:29.525Z,29.93
2019-05-23T00:49:02.550Z,31.90
2019-05-23T00:51:36.453Z,29.87
2019-05-23T00:54:11.379Z,37.28
2019-05-23T00:56:46.624Z,31.63
2019-05-23T00:59:26.901Z,31.07
2019-05-23T01:02:00.748Z,31.97
2019-05-23T01:04:34.208Z,32.40
2019-05-23T01:07:07.660Z,35.00
2019-05-23T01:09:42.425Z,35.33
2019-05-23T01:12:17.720Z,31.90
2019-05-23T01:14:51.672Z,29.30
2019-05-23T01:21:04.266Z,30.17
2019-05-23T01:23:41.608Z,29.13
2019-05-23T01:26:15.189Z,28.50
2019-05-23T01:28:47.984Z,30.17
2019-05-23T01:31:24.544Z,30.30
2019-05-23T01:33:56.263Z,28.57
2019-05-23T01:36:29.443Z,36.40
2019-05-23T01:39:03.908Z,31.23
2019-05-23T01:41:36.486Z,30.13
2019-05-23T01:44:10.966Z,27.00
2019-05-23T01:46:45.237Z,28.07
2019-05-23T01:49:17.779Z,30.87
2019-05-23T01:51:50.207Z,30.00
2019-05-23T01:54:23.310Z,31.50
2019-05-23T01:56:55.882Z,31.43
2019-05-23T01:59:28.773Z,31.97
2019-05-23T02:02:02.673Z,35.10
2019-05-23T02:04:35.547Z,32.97
2019-05-23T02:07:09.237Z,34.10
2019-05-23T02:09:42.902Z,33.27
2019-05-23T02:12:16.376Z,36.17
2019-05-23T02:14:54.577Z,39.57
2019-05-23T02:17:28.366Z,37.57
2019-05-23T02:20:02.122Z,38.50
2019-05-23T02:22:37.104Z,41.10
2019-05-23T02:25:14.010Z,44.17
2019-05-23T02:27:47.870Z,49.23
2019-05-23T02:30:34.181Z,49.83
2019-05-23T02:33:09.761Z,44.63
2019-05-23T02:35:44.220Z,42.10
2019-05-23T02:38:42.711Z,42.57
2019-05-23T02:41:40.179Z,54.85
2019-05-23T02:44:17.034Z,46.65
2019-05-23T02:46:56.702Z,49.20
2019-05-23T02:49:34.905Z,45.60
2019-05-23T02:52:48.991Z,42.27
2019-05-23T02:55:34.784Z,40.70
2019-05-23T02:58:28.352Z,39.03
2019-05-23T03:01:44.450Z,37.47
2019-05-23T03:04:25.429Z,39.87
2019-05-23T03:07:02.948Z,38.20
2019-05-23T03:09:59.546Z,45.17
2019-05-23T03:12:35.654Z,46.87
2019-05-23T03:15:13.011Z,46.17
2019-05-23T03:17:56.406Z,44.03
2019-05-23T03:20:29.853Z,46.90
2019-05-23T03:23:28.199Z,44.47
2019-05-23T03:27:00.940Z,48.33
2019-05-23T03:29:35.188Z,46.37
2019-05-23T03:32:23.014Z,54.20
2019-05-23T03:35:03.386Z,48.70
2019-05-23T03:37:38.146Z,48.67
2019-05-23T03:40:11.451Z,47.00
2019-05-23T03:42:45.383Z,45.07
2019-05-23T03:45:25.922Z,63.97
2019-05-23T03:47:59.536Z,53.07
2019-05-23T03:50:33.687Z,47.20
2019-05-23T03:53:10.377Z,48.80
2019-05-23T03:55:47.532Z,51.77
2019-05-23T03:58:22.413Z,53.83
2019-05-23T04:00:56.845Z,53.83
2019-05-23T04:03:29.946Z,55.33
2019-05-23T04:06:02.915Z,47.87
2019-05-23T04:08:36.411Z,48.77
2019-05-23T04:11:09.868Z,49.00
2019-05-23T04:13:43.030Z,65.68
2019-05-23T04:16:17.200Z,56.90
2019-05-23T04:18:49.912Z,53.40
2019-05-23T04:21:26.472Z,52.37
2019-05-23T04:23:59.427Z,55.73
2019-05-23T04:26:32.549Z,54.83
2019-05-23T04:29:05.686Z,51.40
2019-05-23T04:31:38.600Z,49.93
2019-05-23T04:34:11.489Z,52.85
2019-05-23T04:36:44.583Z,45.77
2019-05-23T04:39:17.164Z,48.83
2019-05-23T04:41:50.824Z,47.17
2019-05-23T04:44:24.741Z,42.50
2019-05-23T04:46:57.457Z,43.23
2019-05-23T04:49:30.516Z,44.30
2019-05-23T04:52:04.525Z,41.60
2019-05-23T04:54:37.184Z,44.00
2019-05-23T04:57:14.143Z,42.50
2019-05-23T04:59:47.726Z,44.33
2019-05-23T05:02:26.510Z,43.87
2019-05-23T05:05:00.481Z,52.25
2019-05-23T05:07:33.039Z,50.90
2019-05-23T05:10:07.825Z,44.87
2019-05-23T05:12:43.081Z,45.90
2019-05-23T05:15:18.204Z,44.97
2019-05-23T05:17:50.814Z,46.33
2019-05-23T05:20:23.663Z,43.30
2019-05-23T05:22:57.879Z,46.20
2019-05-23T05:25:31.749Z,49.70
2019-05-23T05:28:04.929Z,49.83
2019-05-23T05:30:37.761Z,49.97
2019-05-23T05:33:10.693Z,53.97
2019-05-23T05:35:52.238Z,53.77
2019-05-23T05:38:28.561Z,54.80
2019-05-23T05:41:02.560Z,49.27
2019-05-23T05:43:35.770Z,49.67
2019-05-23T05:46:08.873Z,53.90
2019-05-23T05:48:43.392Z,49.67
2019-05-23T05:51:17.795Z,47.17
2019-05-23T05:53:54.445Z,43.47
2019-05-23T05:56:30.282Z,49.43
2019-05-23T05:59:03.039Z,45.93
2019-05-23T06:01:36.946Z,45.70
2019-05-23T06:04:10.362Z,41.77
2019-05-23T06:06:56.919Z,43.03
2019-05-23T06:09:31.217Z,42.77
2019-05-23T06:12:06.492Z,45.10
2019-05-23T06:14:39.242Z,41.17
2019-05-23T06:17:16.437Z,42.80
2019-05-23T06:19:51.418Z,50.45
2019-05-23T06:22:27.802Z,46.07
2019-05-23T06:25:04.555Z,47.17
2019-05-23T06:27:39.793Z,46.20
2019-05-23T06:30:18.697Z,45.57
2019-05-23T06:32:53.307Z,47.03
2019-05-23T06:35:28.062Z,47.07
2019-05-23T06:38:01.553Z,45.90
2019-05-23T06:40:34.374Z,43.67
2019-05-23T06:43:12.669Z,43.87
2019-05-23T06:45:46.837Z,44.57
2019-05-23T06:48:20.694Z,44.87
2019-05-23T06:50:53.404Z,42.27
2019-05-23T06:53:26.011Z,44.27
2019-05-23T06:55:59.468Z,40.93
2019-05-23T06:58:32.628Z,42.57
2019-05-23T07:01:08.150Z,45.05
2019-05-23T07:03:43.449Z,40.27
2019-05-23T07:06:24.081Z,40.50
2019-05-23T07:08:57.750Z,40.47
2019-05-23T07:11:32.540Z,40.03
2019-05-23T07:14:06.506Z,40.03
2019-05-23T07:16:40.135Z,37.87
2019-05-23T07:19:14.201Z,39.60
2019-05-23T07:21:47.343Z,35.47
2019-05-23T07:24:20.873Z,34.70
2019-05-23T07:26:54.120Z,34.43
2019-05-23T07:29:26.918Z,41.40
2019-05-23T07:32:00.957Z,34.27
2019-05-23T07:34:34.770Z,33.33
2019-05-23T07:37:07.629Z,35.38
2019-05-23T07:39:42.522Z,31.90
2019-05-23T07:42:16.509Z,29.80
2019-05-23T07:44:52.889Z,27.33
2019-05-23T07:47:26.708Z,27.10
2019-05-23T07:49:59.371Z,25.43
2019-05-23T07:52:32.231Z,28.65
2019-05-23T07:55:11.766Z,26.00
2019-05-23T07:57:44.968Z,24.53
2019-05-23T08:00:25.976Z,27.17
2019-05-23T08:03:04.829Z,27.95
2019-05-23T08:05:38.660Z,25.53
2019-05-23T08:08:12.153Z,22.73
2019-05-23T08:10:45.664Z,24.17
2019-05-23T08:13:18.690Z,25.50
2019-05-23T08:15:59.316Z,24.40
2019-05-23T08:18:32.488Z,21.67
2019-05-23T08:21:06.570Z,22.73
2019-05-23T08:23:40.311Z,22.80
2019-05-23T08:26:17.358Z,22.90
2019-05-23T08:29:12.666Z,22.07
2019-05-23T08:31:59.157Z,21.77
2019-05-23T08:34:41.801Z,18.90
2019-05-23T08:37:21.357Z,19.07
2019-05-23T08:39:54.301Z,17.97
2019-05-23T08:42:26.938Z,17.33
2019-05-23T08:45:00.319Z,16.40
2019-05-23T08:47:35.718Z,17.90
2019-05-23T08:50:11.438Z,14.97
2019-05-23T08:52:46.362Z,14.40
2019-05-23T08:55:23.906Z,14.20
2019-05-23T08:57:58.553Z,14.82
2019-05-23T09:00:32.916Z,13.57
2019-05-23T09:03:08.265Z,13.87
2019-05-23T09:05:40.959Z,12.70
2019-05-23T09:08:17.444Z,11.70
2019-05-23T09:10:51.260Z,11.83
2019-05-23T09:13:24.387Z,10.18
2019-05-23T09:15:59.791Z,11.37
2019-05-23T09:18:32.494Z,12.00
2019-05-23T09:21:10.191Z,9.80
2019-05-23T09:23:42.772Z,8.03
2019-05-23T09:26:17.643Z,8.63
2019-05-23T09:28:51.208Z,8.32
2019-05-23T09:31:26.771Z,7.37
2019-05-23T09:34:00.458Z,8.37
2019-05-23T09:36:33.651Z,7.93
2019-05-23T09:39:15.906Z,7.57
2019-05-23T09:41:48.745Z,6.90
2019-05-23T09:44:24.732Z,5.83
2019-05-23T09:46:57.677Z,7.33
2019-05-23T09:49:31.369Z,7.57
2019-05-23T09:52:07.718Z,7.13
2019-05-23T09:54:42.881Z,5.63
2019-05-23T09:57:16.582Z,6.73
2019-05-23T09:59:50.195Z,9.38
2019-05-23T10:02:33.196Z,8.47
2019-05-23T10:05:17.488Z,8.30
2019-05-23T10:07:55.868Z,9.53
2019-05-23T10:10:29.595Z,7.00
2019-05-23T10:13:04.979Z,7.83
2019-05-23T10:15:45.479Z,7.70
2019-05-23T10:18:22.941Z,7.60
2019-05-23T10:20:56.299Z,10.53
2019-05-23T10:23:29.401Z,12.25
2019-05-23T10:26:03.013Z,12.40
2019-05-23T10:28:37.386Z,9.77
2019-05-23T10:31:11.437Z,11.03
2019-05-23T10:33:46.820Z,10.27
2019-05-23T10:36:23.559Z,10.10
2019-05-23T10:38:57.366Z,10.00
2019-05-23T10:41:35.194Z,9.53
2019-05-23T10:44:14.113Z,9.50
2019-05-23T10:46:53.722Z,11.40
2019-05-23T10:49:36.028Z,12.07
2019-05-23T10:52:13.008Z,13.83
2019-05-23T10:54:46.025Z,13.83
2019-05-23T10:57:19.165Z,12.90
2019-05-23T10:59:54.504Z,13.17
2019-05-23T11:02:47.535Z,11.77
2019-05-23T11:05:25.974Z,12.20
2019-05-23T11:08:03.684Z,14.57
2019-05-23T11:10:38.669Z,12.97
2019-05-23T11:13:11.705Z,13.30
2019-05-23T11:15:44.702Z,14.63
2019-05-23T11:18:21.386Z,13.83
2019-05-23T11:20:54.711Z,11.97
2019-05-23T11:23:39.730Z,10.70
2019-05-23T11:26:15.764Z,12.13
2019-05-23T11:28:51.488Z,11.80
2019-05-23T11:31:25.855Z,11.53
2019-05-23T11:34:01.058Z,10.40
2019-05-23T11:36:36.875Z,10.17
2019-05-23T11:39:10.774Z,9.87
2019-05-23T11:41:46.277Z,10.63
2019-05-23T11:44:20.880Z,11.73
2019-05-23T11:46:53.817Z,10.17
2019-05-23T11:49:28.966Z,9.13
2019-05-23T11:52:01.646Z,9.33
2019-05-23T11:54:34.991Z,9.40
2019-05-23T11:57:23.081Z,9.70
2019-05-23T11:59:56.560Z,9.80
2019-05-23T12:02:41.055Z,7.90
2019-05-23T12:05:18.815Z,9.53
2019-05-23T12:08:01.548Z,8.18
2019-05-23T12:10:35.056Z,9.80
2019-05-23T12:13:09.241Z,9.27
2019-05-23T12:15:46.810Z,8.80
2019-05-23T12:18:20.400Z,8.50
2019-05-23T12:20:54.302Z,8.00
2019-05-23T12:23:27.920Z,8.83
2019-05-23T12:26:01.711Z,8.67
2019-05-23T12:28:36.394Z,8.37
2019-05-23T12:31:09.600Z,8.53
2019-05-23T12:33:42.844Z,8.10
2019-05-23T12:36:15.736Z,8.20
2019-05-23T12:38:48.586Z,8.70
2019-05-23T12:41:21.848Z,9.00
2019-05-23T12:43:54.551Z,7.77
2019-05-23T12:46:29.339Z,8.73
2019-05-23T12:49:18.297Z,8.90
2019-05-23T12:51:53.133Z,8.47
2019-05-23T12:54:31.569Z,8.00
2019-05-23T12:57:06.552Z,7.10
2019-05-23T12:59:39.234Z,7.10
2019-05-23T13:02:20.751Z,6.40
2019-05-23T13:04:55.121Z,6.90
2019-05-23T13:07:36.231Z,6.75
2019-05-23T13:10:11.045Z,5.23
2019-05-23T13:12:45.593Z,4.53
2019-05-23T13:15:18.242Z,5.70
2019-05-23T13:17:51.547Z,5.53
2019-05-23T13:20:25.224Z,5.40
2019-05-23T13:23:02.257Z,5.53
2019-05-23T13:25:37.779Z,5.73
2019-05-23T13:28:19.250Z,5.00
2019-05-23T13:30:55.608Z,4.33
2019-05-23T13:33:29.488Z,4.37
2019-05-23T13:36:05.559Z,4.40
2019-05-23T13:38:39.001Z,4.10
2019-05-23T13:41:13.448Z,3.90
2019-05-23T13:43:47.168Z,3.87
2019-05-23T13:46:22.471Z,3.43
2019-05-23T13:48:57.363Z,3.90
2019-05-23T13:51:30.657Z,3.57
2019-05-23T13:54:06.301Z,3.40
2019-05-23T13:56:39.375Z,3.17
2019-05-23T13:59:12.255Z,2.50
2019-05-23T14:01:45.062Z,3.97
2019-05-23T14:04:20.229Z,3.60
2019-05-23T14:06:54.762Z,3.63
2019-05-23T14:09:34.770Z,2.90
2019-05-23T14:12:24.729Z,3.10
2019-05-23T14:15:06.912Z,2.77
2019-05-23T14:17:42.814Z,2.70
2019-05-23T14:20:20.290Z,2.53
2019-05-23T14:23:01.620Z,2.40
2019-05-23T14:25:35.693Z,2.60
2019-05-23T14:28:09.971Z,2.40
2019-05-23T14:31:02.504Z,2.70
2019-05-23T14:33:55.293Z,2.60
2019-05-23T14:36:36.859Z,2.50
2019-05-23T14:39:27.418Z,2.47
2019-05-23T14:42:11.183Z,2.27
2019-05-23T14:44:46.517Z,2.30
2019-05-23T14:47:38.891Z,2.30
2019-05-23T14:50:20.610Z,2.77
2019-05-23T14:53:01.867Z,2.87
2019-05-23T14:55:38.937Z,2.50
2019-05-23T14:58:13.702Z,2.53
2019-05-23T15:00:49.425Z,2.40
2019-05-23T15:03:23.832Z,2.90
2019-05-23T15:05:59.049Z,2.67
2019-05-23T15:08:58.665Z,2.73
2019-05-23T15:11:48.751Z,2.72
2019-05-23T15:14:32.705Z,2.53
2019-05-23T15:17:07.154Z,2.27
2019-05-23T15:19:45.366Z,2.70
2019-05-23T15:22:19.048Z,2.53
2019-05-23T15:24:52.746Z,2.30
2019-05-23T15:27:28.666Z,2.60
2019-05-23T15:30:04.737Z,2.00
2019-05-23T15:32:38.851Z,2.30
2019-05-23T15:35:11.911Z,2.10
2019-05-23T15:37:45.725Z,2.40
2019-05-23T15:40:23.594Z,2.50
2019-05-23T15:42:57.237Z,2.07
2019-05-23T15:45:31.190Z,2.07
2019-05-23T15:48:05.590Z,2.30
2019-05-23T15:50:47.305Z,2.17
2019-05-23T15:53:32.992Z,1.93
2019-05-23T15:56:27.322Z,2.10
2019-05-23T15:59:18.802Z,2.20
2019-05-23T16:02:03.895Z,2.27
2019-05-23T16:04:42.180Z,2.37
2019-05-23T16:07:16.295Z,2.20
2019-05-23T16:09:53.015Z,1.67
2019-05-23T16:12:28.628Z,2.10
2019-05-23T16:15:07.233Z,2.23
2019-05-23T16:17:50.758Z,2.47
2019-05-23T16:20:23.979Z,1.90
2019-05-23T16:22:56.686Z,2.33
2019-05-23T16:25:30.867Z,2.30
2019-05-23T16:28:04.653Z,1.90
2019-05-23T16:30:39.560Z,2.13
2019-05-23T16:33:13.149Z,2.40
2019-05-23T16:35:46.963Z,2.30
2019-05-23T16:38:21.270Z,1.70
2019-05-23T16:40:54.033Z,2.10
2019-05-23T16:43:29.468Z,1.90
2019-05-23T16:46:06.984Z,2.47
2019-05-23T16:48:40.196Z,1.90
2019-05-23T16:51:13.059Z,2.17
2019-05-23T16:53:46.530Z,1.90
2019-05-23T16:56:30.951Z,2.28
2019-05-23T16:59:20.154Z,2.00
2019-05-23T17:02:18.740Z,2.00
2019-05-23T17:05:09.767Z,1.83
2019-05-23T17:07:57.628Z,1.83
2019-05-23T17:10:44.913Z,2.10
2019-05-23T17:13:30.949Z,1.97
2019-05-23T17:16:23.048Z,1.60
2019-05-23T17:19:05.143Z,2.00
2019-05-23T17:21:51.359Z,1.90
2019-05-23T17:24:30.833Z,1.57
2019-05-23T17:27:15.879Z,1.80
2019-05-23T17:29:52.862Z,1.70
2019-05-23T17:32:31.347Z,1.80
2019-05-23T17:35:06.197Z,1.60
2019-05-23T17:37:39.066Z,1.80
2019-05-23T17:40:24.154Z,1.60
2019-05-23T17:42:59.063Z,1.60
2019-05-23T17:45:35.474Z,1.37
2019-05-23T17:48:10.771Z,1.57
2019-05-23T17:50:44.031Z,1.63
2019-05-23T17:53:20.728Z,1.53
2019-05-23T17:55:58.878Z,1.20
2019-05-23T17:58:32.451Z,1.43
2019-05-23T18:01:08.128Z,1.40
2019-05-23T18:03:42.257Z,1.57
2019-05-23T18:06:15.290Z,1.30
2019-05-23T18:08:48.974Z,1.37
2019-05-23T18:11:22.625Z,2.40
2019-05-23T18:13:56.336Z,1.90
2019-05-23T18:16:31.224Z,1.70
2019-05-23T18:19:07.340Z,1.63
2019-05-23T18:21:41.821Z,1.90
2019-05-23T18:24:16.074Z,1.40
2019-05-23T18:26:50.913Z,1.50
2019-05-23T18:29:27.386Z,1.43
2019-05-23T18:32:07.326Z,1.60
2019-05-23T18:34:41.858Z,1.80
2019-05-23T18:37:21.636Z,1.90
2019-05-23T18:40:12.312Z,1.80
2019-05-23T18:42:48.287Z,2.00
2019-05-23T18:45:23.853Z,2.57
2019-05-23T18:48:01.101Z,2.83
2019-05-23T18:50:37.754Z,2.42
2019-05-23T18:53:15.143Z,1.93
2019-05-23T18:55:49.459Z,2.13
2019-05-23T18:58:25.008Z,1.80
2019-05-23T19:01:24.468Z,2.10
2019-05-23T19:03:57.762Z,2.00
2019-05-23T19:06:34.519Z,1.90
2019-05-23T19:09:20.783Z,2.00
2019-05-23T19:11:58.548Z,2.07
2019-05-23T19:14:35.403Z,2.10
2019-05-23T19:17:13.187Z,2.77
2019-05-23T19:19:50.070Z,2.00
2019-05-23T19:22:24.594Z,2.60
2019-05-23T19:24:58.176Z,2.50
2019-05-23T19:27:31.017Z,2.40
2019-05-23T19:30:08.385Z,2.40
2019-05-23T19:32:41.097Z,2.17
2019-05-23T19:35:16.298Z,1.90
2019-05-23T19:37:50.444Z,1.73
2019-05-23T19:40:24.859Z,2.10
2019-05-23T19:42:58.952Z,1.70
2019-05-23T19:45:32.196Z,1.40
2019-05-23T19:48:07.330Z,1.65
2019-05-23T19:50:41.567Z,2.63
2019-05-23T19:53:14.697Z,2.00
2019-05-23T19:55:48.820Z,2.50
2019-05-23T19:58:25.016Z,3.27
2019-05-23T20:00:59.823Z,3.00
2019-05-23T20:03:34.014Z,2.70
2019-05-23T20:06:11.018Z,2.73
2019-05-23T20:08:44.994Z,2.87
2019-05-23T20:11:22.111Z,3.10
2019-05-23T20:13:56.363Z,2.80
2019-05-23T20:16:31.526Z,3.33
2019-05-23T20:19:06.476Z,3.13
2019-05-23T20:21:41.740Z,4.07
2019-05-23T20:24:21.976Z,3.80
2019-05-23T20:26:54.970Z,3.50
2019-05-23T20:29:30.823Z,3.10
2019-05-23T20:32:11.494Z,3.10
2019-05-23T20:34:45.932Z,3.03
2019-05-23T20:37:22.447Z,2.80
2019-05-23T20:40:16.685Z,2.70
2019-05-23T20:42:52.667Z,2.40
2019-05-23T20:45:27.260Z,2.47
2019-05-23T20:48:01.443Z,2.87
2019-05-23T20:50:34.181Z,2.30
2019-05-23T20:53:08.252Z,3.00
2019-05-23T20:55:41.292Z,4.70
2019-05-23T20:58:15.424Z,2.93
2019-05-23T21:01:00.857Z,2.80
2019-05-23T21:03:35.903Z,2.37
2019-05-23T21:06:13.671Z,2.50
2019-05-23T21:08:47.947Z,2.73
2019-05-23T21:11:20.983Z,2.60
2019-05-23T21:13:54.367Z,3.20
2019-05-23T21:16:27.193Z,3.27
2019-05-23T21:19:03.698Z,3.00
2019-05-23T21:21:38.351Z,2.73
2019-05-23T21:24:14.053Z,2.37
2019-05-23T21:26:49.481Z,3.20
2019-05-23T21:29:23.146Z,3.30
2019-05-23T21:31:57.225Z,3.25
2019-05-23T21:34:31.289Z,3.17
2019-05-23T21:37:04.427Z,2.90
2019-05-23T21:39:38.447Z,3.20
2019-05-23T21:42:11.166Z,3.33
2019-05-23T21:44:44.216Z,3.30
2019-05-23T21:47:17.849Z,3.80
2019-05-23T21:49:51.210Z,3.57
2019-05-23T21:52:23.973Z,3.40
2019-05-23T21:54:56.596Z,3.40
2019-05-23T21:57:30.020Z,3.20
2019-05-23T22:00:03.984Z,3.83
2019-05-23T22:02:36.664Z,3.97
2019-05-23T22:05:13.276Z,4.00
2019-05-23T22:07:46.071Z,3.67
2019-05-23T22:10:18.894Z,3.60
2019-05-23T22:13:03.985Z,3.60
2019-05-23T22:15:38.173Z,3.60
2019-05-23T22:18:11.017Z,3.90
2019-05-23T22:20:44.352Z,3.53
2019-05-23T22:23:17.056Z,4.05
2019-05-23T22:25:50.972Z,4.00
2019-05-23T22:28:23.836Z,3.70
2019-05-23T22:30:58.935Z,3.77
2019-05-23T22:33:43.342Z,3.73
2019-05-23T22:36:18.027Z,3.70
2019-05-23T22:38:52.415Z,3.73
2019-05-23T22:41:27.320Z,3.60
2019-05-23T22:44:00.136Z,3.50
2019-05-23T22:46:34.168Z,3.90
2019-05-23T22:49:07.237Z,3.80
2019-05-23T22:51:39.839Z,4.20
2019-05-23T22:54:12.824Z,3.47
2019-05-23T22:56:46.029Z,3.80
2019-05-23T22:59:19.112Z,4.23
2019-05-23T23:01:52.194Z,3.70
2019-05-23T23:04:25.637Z,3.70
2019-05-23T23:06:58.294Z,3.47
2019-05-23T23:09:31.103Z,3.93
2019-05-23T23:12:05.671Z,3.60
2019-05-23T23:14:38.350Z,3.70
2019-05-23T23:17:15.167Z,3.80
2019-05-23T23:19:49.842Z,3.40
2019-05-23T23:22:24.010Z,3.73
2019-05-23T23:24:56.531Z,3.60
2019-05-23T23:27:30.185Z,4.43
2019-05-23T23:30:06.353Z,3.70
2019-05-23T23:32:39.127Z,4.07
2019-05-23T23:35:12.158Z,3.80
2019-05-23T23:37:44.910Z,4.10
2019-05-23T23:40:19.443Z,3.72
2019-05-23T23:42:52.042Z,4.00
2019-05-23T23:45:30.499Z,4.27
2019-05-23T23:48:09.534Z,3.70
2019-05-23T23:50:48.213Z,3.73
2019-05-23T23:53:27.453Z,3.73
2019-05-23T23:56:05.895Z,3.90
2019-05-23T23:58:38.398Z,3.67
